Terminal Aerodrome Forecast
Issued by NWS Wichita, KS

Home | Current Version | Previous Version | Text Only | Print | Product List | Glossary On
Versions: 1 2 3 4 5 6 7 8 9 10 11 12 13 14 15
467
FTUS43 KICT 240455 AAD
TAFICT
TAF AMD
KICT 240455Z 2405/2424 34017G22KT P6SM SCT015 OVC028
      TEMPO 2405/2409 OVC013
     FM240900 32017KT P6SM OVC015
     FM241500 32017G22KT P6SM BKN022
     FM241800 32022G26KT P6SM BKN035=

USA.gov is the U.S. government's official web portal to all federal, state and local government web resources and services.